sensor_id;sensor_type;location;lat;lon;timestamp;P1;durP1;ratioP1;P2;durP2;ratioP2
32964;SDS011;19317;48.226;11.686;2023-12-28T00:01:30;5.93;;;5.07;;
32964;SDS011;19317;48.226;11.686;2023-12-28T00:06:21;6.00;;;4.47;;
32964;SDS011;19317;48.226;11.686;2023-12-28T00:11:11;6.93;;;5.00;;
32964;SDS011;19317;48.226;11.686;2023-12-28T00:16:02;6.23;;;4.93;;
32964;SDS011;19317;48.226;11.686;2023-12-28T00:20:53;5.13;;;4.63;;
32964;SDS011;19317;48.226;11.686;2023-12-28T00:25:44;5.97;;;4.50;;
32964;SDS011;19317;48.226;11.686;2023-12-28T00:30:35;6.80;;;4.53;;
32964;SDS011;19317;48.226;11.686;2023-12-28T00:35:26;4.93;;;4.43;;
32964;SDS011;19317;48.226;11.686;2023-12-28T00:40:17;5.93;;;4.03;;
32964;SDS011;19317;48.226;11.686;2023-12-28T00:45:08;5.80;;;3.83;;
32964;SDS011;19317;48.226;11.686;2023-12-28T00:49:59;3.70;;;3.40;;
32964;SDS011;19317;48.226;11.686;2023-12-28T00:54:50;5.87;;;3.93;;
32964;SDS011;19317;48.226;11.686;2023-12-28T00:59:41;5.93;;;4.00;;
32964;SDS011;19317;48.226;11.686;2023-12-28T01:04:32;5.03;;;3.80;;
32964;SDS011;19317;48.226;11.686;2023-12-28T01:09:22;6.47;;;4.00;;
32964;SDS011;19317;48.226;11.686;2023-12-28T01:14:13;4.27;;;3.87;;
32964;SDS011;19317;48.226;11.686;2023-12-28T01:19:05;4.37;;;3.70;;
32964;SDS011;19317;48.226;11.686;2023-12-28T01:23:56;5.57;;;3.60;;
32964;SDS011;19317;48.226;11.686;2023-12-28T01:28:46;3.57;;;3.20;;
32964;SDS011;19317;48.226;11.686;2023-12-28T01:33:37;3.50;;;3.20;;
32964;SDS011;19317;48.226;11.686;2023-12-28T01:38:28;3.23;;;2.93;;
32964;SDS011;19317;48.226;11.686;2023-12-28T01:43:19;3.47;;;3.10;;
32964;SDS011;19317;48.226;11.686;2023-12-28T01:48:10;3.20;;;2.90;;
32964;SDS011;19317;48.226;11.686;2023-12-28T01:53:01;2.97;;;2.73;;
32964;SDS011;19317;48.226;11.686;2023-12-28T01:57:52;3.20;;;2.90;;
32964;SDS011;19317;48.226;11.686;2023-12-28T02:02:44;2.90;;;2.70;;
32964;SDS011;19317;48.226;11.686;2023-12-28T02:07:35;2.93;;;2.73;;
32964;SDS011;19317;48.226;11.686;2023-12-28T02:12:27;3.03;;;2.73;;
32964;SDS011;19317;48.226;11.686;2023-12-28T02:17:31;3.70;;;3.30;;
32964;SDS011;19317;48.226;11.686;2023-12-28T02:22:24;3.77;;;3.17;;
32964;SDS011;19317;48.226;11.686;2023-12-28T02:27:15;3.30;;;3.00;;
32964;SDS011;19317;48.226;11.686;2023-12-28T02:32:06;2.80;;;2.60;;
32964;SDS011;19317;48.226;11.686;2023-12-28T02:36:59;3.20;;;2.90;;
32964;SDS011;19317;48.226;11.686;2023-12-28T02:41:51;3.30;;;3.00;;
32964;SDS011;19317;48.226;11.686;2023-12-28T02:46:42;2.77;;;2.57;;
32964;SDS011;19317;48.226;11.686;2023-12-28T02:51:33;2.53;;;2.33;;
32964;SDS011;19317;48.226;11.686;2023-12-28T02:56:24;3.07;;;2.60;;
32964;SDS011;19317;48.226;11.686;2023-12-28T03:01:15;2.80;;;2.60;;
32964;SDS011;19317;48.226;11.686;2023-12-28T03:06:06;2.50;;;2.30;;
32964;SDS011;19317;48.226;11.686;2023-12-28T03:10:57;2.80;;;2.40;;
32964;SDS011;19317;48.226;11.686;2023-12-28T03:15:48;2.50;;;2.30;;
32964;SDS011;19317;48.226;11.686;2023-12-28T03:20:39;2.60;;;2.40;;
32964;SDS011;19317;48.226;11.686;2023-12-28T03:25:30;3.07;;;2.77;;
32964;SDS011;19317;48.226;11.686;2023-12-28T03:30:20;2.97;;;2.43;;
32964;SDS011;19317;48.226;11.686;2023-12-28T03:35:11;2.87;;;2.63;;
32964;SDS011;19317;48.226;11.686;2023-12-28T03:40:02;2.60;;;2.40;;
32964;SDS011;19317;48.226;11.686;2023-12-28T03:44:53;5.37;;;2.50;;
32964;SDS011;19317;48.226;11.686;2023-12-28T03:49:44;3.63;;;2.70;;
32964;SDS011;19317;48.226;11.686;2023-12-28T03:54:35;2.93;;;2.50;;
32964;SDS011;19317;48.226;11.686;2023-12-28T03:59:26;2.77;;;2.57;;
32964;SDS011;19317;48.226;11.686;2023-12-28T04:04:17;3.03;;;2.33;;
32964;SDS011;19317;48.226;11.686;2023-12-28T04:09:08;2.60;;;2.40;;
32964;SDS011;19317;48.226;11.686;2023-12-28T04:13:59;2.57;;;2.37;;
32964;SDS011;19317;48.226;11.686;2023-12-28T04:18:50;2.67;;;2.47;;
32964;SDS011;19317;48.226;11.686;2023-12-28T04:23:41;2.77;;;2.40;;
32964;SDS011;19317;48.226;11.686;2023-12-28T04:28:32;5.83;;;4.30;;
32964;SDS011;19317;48.226;11.686;2023-12-28T04:33:23;6.43;;;4.30;;
32964;SDS011;19317;48.226;11.686;2023-12-28T04:38:14;2.90;;;2.60;;
32964;SDS011;19317;48.226;11.686;2023-12-28T04:43:04;2.67;;;2.47;;
32964;SDS011;19317;48.226;11.686;2023-12-28T04:47:55;2.43;;;2.23;;
32964;SDS011;19317;48.226;11.686;2023-12-28T04:52:46;2.80;;;2.40;;
32964;SDS011;19317;48.226;11.686;2023-12-28T04:57:37;3.17;;;2.50;;
32964;SDS011;19317;48.226;11.686;2023-12-28T05:02:28;2.70;;;2.50;;
32964;SDS011;19317;48.226;11.686;2023-12-28T05:07:19;2.50;;;2.30;;
32964;SDS011;19317;48.226;11.686;2023-12-28T05:12:10;2.40;;;2.20;;
32964;SDS011;19317;48.226;11.686;2023-12-28T05:17:01;4.30;;;2.30;;
32964;SDS011;19317;48.226;11.686;2023-12-28T05:21:51;4.93;;;3.23;;
32964;SDS011;19317;48.226;11.686;2023-12-28T05:26:42;2.60;;;2.30;;
32964;SDS011;19317;48.226;11.686;2023-12-28T05:31:33;2.97;;;2.67;;
32964;SDS011;19317;48.226;11.686;2023-12-28T05:36:24;4.43;;;3.50;;
32964;SDS011;19317;48.226;11.686;2023-12-28T05:41:15;3.93;;;2.70;;
32964;SDS011;19317;48.226;11.686;2023-12-28T05:46:06;3.40;;;3.00;;
32964;SDS011;19317;48.226;11.686;2023-12-28T05:50:57;2.50;;;2.30;;
32964;SDS011;19317;48.226;11.686;2023-12-28T05:55:48;2.83;;;2.63;;
32964;SDS011;19317;48.226;11.686;2023-12-28T06:00:39;2.70;;;2.50;;
32964;SDS011;19317;48.226;11.686;2023-12-28T06:05:30;2.27;;;2.17;;
32964;SDS011;19317;48.226;11.686;2023-12-28T06:10:21;2.40;;;2.20;;
32964;SDS011;19317;48.226;11.686;2023-12-28T06:15:12;2.20;;;2.00;;
32964;SDS011;19317;48.226;11.686;2023-12-28T06:20:03;2.43;;;2.23;;
32964;SDS011;19317;48.226;11.686;2023-12-28T06:24:54;2.33;;;2.13;;
32964;SDS011;19317;48.226;11.686;2023-12-28T06:29:45;3.97;;;2.20;;
32964;SDS011;19317;48.226;11.686;2023-12-28T06:34:36;2.50;;;2.30;;
32964;SDS011;19317;48.226;11.686;2023-12-28T06:39:27;2.40;;;2.20;;
32964;SDS011;19317;48.226;11.686;2023-12-28T06:44:18;3.43;;;2.20;;
32964;SDS011;19317;48.226;11.686;2023-12-28T06:49:08;2.40;;;2.20;;
32964;SDS011;19317;48.226;11.686;2023-12-28T06:53:59;2.63;;;2.43;;
32964;SDS011;19317;48.226;11.686;2023-12-28T06:58:50;3.30;;;2.30;;
32964;SDS011;19317;48.226;11.686;2023-12-28T07:03:41;2.30;;;2.10;;
32964;SDS011;19317;48.226;11.686;2023-12-28T07:08:32;2.67;;;2.37;;
32964;SDS011;19317;48.226;11.686;2023-12-28T07:13:23;2.73;;;2.37;;
32964;SDS011;19317;48.226;11.686;2023-12-28T07:18:14;2.97;;;2.30;;
32964;SDS011;19317;48.226;11.686;2023-12-28T07:23:05;3.60;;;2.43;;
32964;SDS011;19317;48.226;11.686;2023-12-28T07:27:56;2.77;;;2.40;;
32964;SDS011;19317;48.226;11.686;2023-12-28T07:32:47;3.33;;;2.30;;
32964;SDS011;19317;48.226;11.686;2023-12-28T07:37:38;2.30;;;2.10;;
32964;SDS011;19317;48.226;11.686;2023-12-28T07:42:29;2.90;;;2.10;;
32964;SDS011;19317;48.226;11.686;2023-12-28T07:47:20;2.60;;;2.40;;
32964;SDS011;19317;48.226;11.686;2023-12-28T07:52:11;4.67;;;2.10;;
32964;SDS011;19317;48.226;11.686;2023-12-28T07:57:01;2.60;;;2.40;;
32964;SDS011;19317;48.226;11.686;2023-12-28T08:01:52;3.77;;;3.17;;
32964;SDS011;19317;48.226;11.686;2023-12-28T08:06:43;2.60;;;2.40;;
32964;SDS011;19317;48.226;11.686;2023-12-28T08:11:34;3.97;;;2.40;;
32964;SDS011;19317;48.226;11.686;2023-12-28T08:16:25;4.00;;;2.73;;
32964;SDS011;19317;48.226;11.686;2023-12-28T08:21:16;3.60;;;2.73;;
32964;SDS011;19317;48.226;11.686;2023-12-28T08:26:07;5.87;;;2.97;;
32964;SDS011;19317;48.226;11.686;2023-12-28T08:30:58;2.90;;;2.60;;
32964;SDS011;19317;48.226;11.686;2023-12-28T08:35:49;4.10;;;3.20;;
32964;SDS011;19317;48.226;11.686;2023-12-28T08:40:39;3.00;;;2.80;;
32964;SDS011;19317;48.226;11.686;2023-12-28T08:45:30;3.23;;;2.63;;
32964;SDS011;19317;48.226;11.686;2023-12-28T08:50:21;2.80;;;2.60;;
32964;SDS011;19317;48.226;11.686;2023-12-28T08:55:12;2.57;;;2.37;;
32964;SDS011;19317;48.226;11.686;2023-12-28T09:00:06;2.63;;;2.43;;
32964;SDS011;19317;48.226;11.686;2023-12-28T09:05:00;2.80;;;2.60;;
32964;SDS011;19317;48.226;11.686;2023-12-28T09:09:51;2.87;;;2.40;;
32964;SDS011;19317;48.226;11.686;2023-12-28T09:14:42;3.13;;;2.60;;
32964;SDS011;19317;48.226;11.686;2023-12-28T09:19:33;2.70;;;2.50;;
32964;SDS011;19317;48.226;11.686;2023-12-28T09:24:24;5.83;;;2.47;;
32964;SDS011;19317;48.226;11.686;2023-12-28T09:29:15;3.23;;;2.57;;
32964;SDS011;19317;48.226;11.686;2023-12-28T09:34:06;2.73;;;2.40;;
32964;SDS011;19317;48.226;11.686;2023-12-28T09:38:56;5.57;;;2.90;;
32964;SDS011;19317;48.226;11.686;2023-12-28T09:43:54;2.90;;;2.50;;
32964;SDS011;19317;48.226;11.686;2023-12-28T09:48:47;2.97;;;2.67;;
32964;SDS011;19317;48.226;11.686;2023-12-28T09:53:38;3.60;;;2.50;;
32964;SDS011;19317;48.226;11.686;2023-12-28T09:58:29;3.70;;;2.77;;
32964;SDS011;19317;48.226;11.686;2023-12-28T10:03:20;2.70;;;2.50;;
32964;SDS011;19317;48.226;11.686;2023-12-28T10:08:11;2.93;;;2.73;;
32964;SDS011;19317;48.226;11.686;2023-12-28T10:13:02;3.00;;;2.80;;
32964;SDS011;19317;48.226;11.686;2023-12-28T10:17:53;3.40;;;2.50;;
32964;SDS011;19317;48.226;11.686;2023-12-28T10:22:44;4.57;;;3.27;;
32964;SDS011;19317;48.226;11.686;2023-12-28T10:27:38;2.50;;;2.30;;
32964;SDS011;19317;48.226;11.686;2023-12-28T10:32:29;2.60;;;2.30;;
32964;SDS011;19317;48.226;11.686;2023-12-28T10:37:20;3.80;;;2.47;;
32964;SDS011;19317;48.226;11.686;2023-12-28T10:42:11;2.93;;;2.33;;
32964;SDS011;19317;48.226;11.686;2023-12-28T10:47:03;2.80;;;2.50;;
32964;SDS011;19317;48.226;11.686;2023-12-28T10:51:56;4.03;;;2.50;;
32964;SDS011;19317;48.226;11.686;2023-12-28T10:56:49;2.47;;;2.27;;
32964;SDS011;19317;48.226;11.686;2023-12-28T11:01:45;2.40;;;2.20;;
32964;SDS011;19317;48.226;11.686;2023-12-28T11:06:37;2.93;;;2.17;;
32964;SDS011;19317;48.226;11.686;2023-12-28T11:11:28;2.27;;;2.07;;
32964;SDS011;19317;48.226;11.686;2023-12-28T11:16:20;2.53;;;2.20;;
32964;SDS011;19317;48.226;11.686;2023-12-28T11:21:12;2.60;;;2.40;;
32964;SDS011;19317;48.226;11.686;2023-12-28T11:26:03;2.53;;;2.33;;
32964;SDS011;19317;48.226;11.686;2023-12-28T11:30:54;2.60;;;2.40;;
32964;SDS011;19317;48.226;11.686;2023-12-28T11:35:46;3.73;;;2.47;;
32964;SDS011;19317;48.226;11.686;2023-12-28T11:40:41;3.17;;;2.30;;
32964;SDS011;19317;48.226;11.686;2023-12-28T11:45:32;2.50;;;2.30;;
32964;SDS011;19317;48.226;11.686;2023-12-28T11:50:23;2.33;;;2.13;;
32964;SDS011;19317;48.226;11.686;2023-12-28T11:55:20;2.43;;;2.20;;
32964;SDS011;19317;48.226;11.686;2023-12-28T12:00:11;2.93;;;2.20;;
32964;SDS011;19317;48.226;11.686;2023-12-28T12:05:02;2.47;;;2.20;;
32964;SDS011;19317;48.226;11.686;2023-12-28T12:09:56;2.53;;;2.33;;
32964;SDS011;19317;48.226;11.686;2023-12-28T12:14:47;2.50;;;2.30;;
32964;SDS011;19317;48.226;11.686;2023-12-28T12:19:38;2.40;;;2.23;;
32964;SDS011;19317;48.226;11.686;2023-12-28T12:24:29;2.30;;;2.10;;
32964;SDS011;19317;48.226;11.686;2023-12-28T12:29:22;3.23;;;2.20;;
32964;SDS011;19317;48.226;11.686;2023-12-28T12:34:15;2.83;;;2.60;;
32964;SDS011;19317;48.226;11.686;2023-12-28T12:39:06;2.50;;;2.30;;
32964;SDS011;19317;48.226;11.686;2023-12-28T12:43:57;4.27;;;2.50;;
32964;SDS011;19317;48.226;11.686;2023-12-28T12:48:57;2.87;;;2.50;;
32964;SDS011;19317;48.226;11.686;2023-12-28T12:53:48;3.23;;;2.37;;
32964;SDS011;19317;48.226;11.686;2023-12-28T12:58:39;3.03;;;2.20;;
32964;SDS011;19317;48.226;11.686;2023-12-28T13:03:30;2.60;;;2.40;;
32964;SDS011;19317;48.226;11.686;2023-12-28T13:08:21;2.00;;;1.90;;
32964;SDS011;19317;48.226;11.686;2023-12-28T13:13:11;2.83;;;2.50;;
32964;SDS011;19317;48.226;11.686;2023-12-28T13:18:02;2.60;;;2.30;;
32964;SDS011;19317;48.226;11.686;2023-12-28T13:22:53;6.07;;;2.20;;
32964;SDS011;19317;48.226;11.686;2023-12-28T13:27:44;2.40;;;2.20;;
32964;SDS011;19317;48.226;11.686;2023-12-28T13:32:35;3.40;;;2.20;;
32964;SDS011;19317;48.226;11.686;2023-12-28T13:37:26;2.50;;;2.30;;
32964;SDS011;19317;48.226;11.686;2023-12-28T13:42:17;3.57;;;3.20;;
32964;SDS011;19317;48.226;11.686;2023-12-28T13:47:08;2.57;;;2.37;;
32964;SDS011;19317;48.226;11.686;2023-12-28T13:51:58;2.37;;;2.17;;
32964;SDS011;19317;48.226;11.686;2023-12-28T13:56:49;2.60;;;2.40;;
32964;SDS011;19317;48.226;11.686;2023-12-28T14:01:40;2.60;;;2.40;;
32964;SDS011;19317;48.226;11.686;2023-12-28T14:06:32;2.60;;;2.40;;
32964;SDS011;19317;48.226;11.686;2023-12-28T14:11:23;3.73;;;2.70;;
32964;SDS011;19317;48.226;11.686;2023-12-28T14:16:14;3.70;;;2.70;;
32964;SDS011;19317;48.226;11.686;2023-12-28T14:21:05;3.73;;;2.60;;
32964;SDS011;19317;48.226;11.686;2023-12-28T14:25:56;2.87;;;2.50;;
32964;SDS011;19317;48.226;11.686;2023-12-28T14:30:47;2.77;;;2.53;;
32964;SDS011;19317;48.226;11.686;2023-12-28T14:35:38;3.97;;;2.60;;
32964;SDS011;19317;48.226;11.686;2023-12-28T14:40:29;3.37;;;3.07;;
32964;SDS011;19317;48.226;11.686;2023-12-28T14:45:19;2.83;;;2.60;;
32964;SDS011;19317;48.226;11.686;2023-12-28T14:50:10;3.37;;;3.00;;
32964;SDS011;19317;48.226;11.686;2023-12-28T14:55:01;2.90;;;2.70;;
32964;SDS011;19317;48.226;11.686;2023-12-28T14:59:52;3.10;;;2.80;;
32964;SDS011;19317;48.226;11.686;2023-12-28T15:04:43;4.50;;;3.90;;
32964;SDS011;19317;48.226;11.686;2023-12-28T15:09:34;4.10;;;2.80;;
32964;SDS011;19317;48.226;11.686;2023-12-28T15:14:25;3.63;;;2.87;;
32964;SDS011;19317;48.226;11.686;2023-12-28T15:19:16;4.47;;;2.73;;
32964;SDS011;19317;48.226;11.686;2023-12-28T15:24:07;4.83;;;3.23;;
32964;SDS011;19317;48.226;11.686;2023-12-28T15:28:58;3.40;;;3.10;;
32964;SDS011;19317;48.226;11.686;2023-12-28T15:33:49;3.93;;;3.23;;
32964;SDS011;19317;48.226;11.686;2023-12-28T15:38:40;3.47;;;2.77;;
32964;SDS011;19317;48.226;11.686;2023-12-28T15:43:30;3.70;;;2.77;;
32964;SDS011;19317;48.226;11.686;2023-12-28T15:48:21;3.70;;;3.30;;
32964;SDS011;19317;48.226;11.686;2023-12-28T15:53:12;3.93;;;3.10;;
32964;SDS011;19317;48.226;11.686;2023-12-28T15:58:03;3.50;;;3.20;;
32964;SDS011;19317;48.226;11.686;2023-12-28T16:02:54;4.03;;;3.30;;
32964;SDS011;19317;48.226;11.686;2023-12-28T16:07:45;4.33;;;3.10;;
32964;SDS011;19317;48.226;11.686;2023-12-28T16:12:36;4.80;;;3.57;;
32964;SDS011;19317;48.226;11.686;2023-12-28T16:17:27;5.73;;;2.73;;
32964;SDS011;19317;48.226;11.686;2023-12-28T16:22:18;2.90;;;2.70;;
32964;SDS011;19317;48.226;11.686;2023-12-28T16:27:09;3.37;;;2.80;;
32964;SDS011;19317;48.226;11.686;2023-12-28T16:32:00;3.47;;;3.17;;
32964;SDS011;19317;48.226;11.686;2023-12-28T16:36:50;3.43;;;2.67;;
32964;SDS011;19317;48.226;11.686;2023-12-28T16:41:41;3.00;;;2.70;;
32964;SDS011;19317;48.226;11.686;2023-12-28T16:46:32;4.23;;;3.17;;
32964;SDS011;19317;48.226;11.686;2023-12-28T16:51:23;4.73;;;2.90;;
32964;SDS011;19317;48.226;11.686;2023-12-28T16:56:14;2.67;;;2.47;;
32964;SDS011;19317;48.226;11.686;2023-12-28T17:01:05;2.80;;;2.50;;
32964;SDS011;19317;48.226;11.686;2023-12-28T17:05:56;3.47;;;3.17;;
32964;SDS011;19317;48.226;11.686;2023-12-28T17:10:47;3.53;;;2.50;;
32964;SDS011;19317;48.226;11.686;2023-12-28T17:15:38;3.20;;;2.90;;
32964;SDS011;19317;48.226;11.686;2023-12-28T17:20:29;2.60;;;2.40;;
32964;SDS011;19317;48.226;11.686;2023-12-28T17:25:31;2.73;;;2.50;;
32964;SDS011;19317;48.226;11.686;2023-12-28T17:30:27;2.93;;;2.70;;
32964;SDS011;19317;48.226;11.686;2023-12-28T17:35:19;5.93;;;2.90;;
32964;SDS011;19317;48.226;11.686;2023-12-28T17:40:11;3.40;;;3.10;;
32964;SDS011;19317;48.226;11.686;2023-12-28T17:45:02;3.20;;;2.90;;
32964;SDS011;19317;48.226;11.686;2023-12-28T17:49:55;3.23;;;2.93;;
32964;SDS011;19317;48.226;11.686;2023-12-28T17:54:47;3.13;;;2.63;;
32964;SDS011;19317;48.226;11.686;2023-12-28T17:59:37;3.17;;;2.50;;
32964;SDS011;19317;48.226;11.686;2023-12-28T18:04:28;2.97;;;2.60;;
32964;SDS011;19317;48.226;11.686;2023-12-28T18:09:19;2.87;;;2.63;;
32964;SDS011;19317;48.226;11.686;2023-12-28T18:14:10;3.40;;;3.10;;
32964;SDS011;19317;48.226;11.686;2023-12-28T18:19:01;4.20;;;2.60;;
32964;SDS011;19317;48.226;11.686;2023-12-28T18:23:52;2.90;;;2.70;;
32964;SDS011;19317;48.226;11.686;2023-12-28T18:28:43;3.20;;;2.87;;
32964;SDS011;19317;48.226;11.686;2023-12-28T18:33:34;3.53;;;3.23;;
32964;SDS011;19317;48.226;11.686;2023-12-28T18:38:24;4.40;;;3.37;;
32964;SDS011;19317;48.226;11.686;2023-12-28T18:43:16;3.30;;;3.00;;
32964;SDS011;19317;48.226;11.686;2023-12-28T18:48:07;3.07;;;2.80;;
32964;SDS011;19317;48.226;11.686;2023-12-28T18:52:58;2.90;;;2.70;;
32964;SDS011;19317;48.226;11.686;2023-12-28T18:57:49;3.63;;;2.93;;
32964;SDS011;19317;48.226;11.686;2023-12-28T19:02:40;3.67;;;3.13;;
32964;SDS011;19317;48.226;11.686;2023-12-28T19:07:30;5.13;;;3.40;;
32964;SDS011;19317;48.226;11.686;2023-12-28T19:12:21;3.63;;;2.70;;
32964;SDS011;19317;48.226;11.686;2023-12-28T19:17:12;3.00;;;2.60;;
32964;SDS011;19317;48.226;11.686;2023-12-28T19:22:03;5.07;;;2.83;;
32964;SDS011;19317;48.226;11.686;2023-12-28T19:26:54;3.40;;;3.10;;
32964;SDS011;19317;48.226;11.686;2023-12-28T19:31:45;4.43;;;3.57;;
32964;SDS011;19317;48.226;11.686;2023-12-28T19:36:36;4.67;;;4.27;;
32964;SDS011;19317;48.226;11.686;2023-12-28T19:41:27;3.30;;;3.00;;
32964;SDS011;19317;48.226;11.686;2023-12-28T19:46:17;4.07;;;3.60;;
32964;SDS011;19317;48.226;11.686;2023-12-28T19:51:09;3.90;;;3.50;;
32964;SDS011;19317;48.226;11.686;2023-12-28T19:55:59;4.17;;;3.30;;
32964;SDS011;19317;48.226;11.686;2023-12-28T20:00:50;5.07;;;3.80;;
32964;SDS011;19317;48.226;11.686;2023-12-28T20:05:41;6.97;;;4.60;;
32964;SDS011;19317;48.226;11.686;2023-12-28T20:10:32;8.20;;;6.50;;
32964;SDS011;19317;48.226;11.686;2023-12-28T20:15:23;7.43;;;5.70;;
32964;SDS011;19317;48.226;11.686;2023-12-28T20:20:14;7.20;;;5.80;;
32964;SDS011;19317;48.226;11.686;2023-12-28T20:25:05;6.63;;;4.50;;
32964;SDS011;19317;48.226;11.686;2023-12-28T20:29:56;4.00;;;3.60;;
32964;SDS011;19317;48.226;11.686;2023-12-28T20:34:47;4.00;;;3.60;;
32964;SDS011;19317;48.226;11.686;2023-12-28T20:39:38;4.23;;;3.80;;
32964;SDS011;19317;48.226;11.686;2023-12-28T20:44:29;6.03;;;5.27;;
32964;SDS011;19317;48.226;11.686;2023-12-28T20:49:20;7.70;;;6.20;;
32964;SDS011;19317;48.226;11.686;2023-12-28T20:54:10;5.30;;;4.00;;
32964;SDS011;19317;48.226;11.686;2023-12-28T20:59:01;5.17;;;4.03;;
32964;SDS011;19317;48.226;11.686;2023-12-28T21:03:52;4.90;;;4.40;;
32964;SDS011;19317;48.226;11.686;2023-12-28T21:08:43;6.57;;;4.47;;
32964;SDS011;19317;48.226;11.686;2023-12-28T21:13:34;5.20;;;4.07;;
32964;SDS011;19317;48.226;11.686;2023-12-28T21:18:25;4.90;;;3.67;;
32964;SDS011;19317;48.226;11.686;2023-12-28T21:23:16;4.23;;;3.80;;
32964;SDS011;19317;48.226;11.686;2023-12-28T21:28:07;4.83;;;4.33;;
32964;SDS011;19317;48.226;11.686;2023-12-28T21:32:58;3.83;;;3.33;;
32964;SDS011;19317;48.226;11.686;2023-12-28T21:37:49;5.40;;;3.57;;
32964;SDS011;19317;48.226;11.686;2023-12-28T21:42:39;6.83;;;4.20;;
32964;SDS011;19317;48.226;11.686;2023-12-28T21:47:30;4.57;;;4.17;;
32964;SDS011;19317;48.226;11.686;2023-12-28T21:52:21;4.90;;;3.87;;
32964;SDS011;19317;48.226;11.686;2023-12-28T21:57:12;4.60;;;3.90;;
32964;SDS011;19317;48.226;11.686;2023-12-28T22:02:03;6.47;;;4.63;;
32964;SDS011;19317;48.226;11.686;2023-12-28T22:06:54;5.80;;;4.03;;
32964;SDS011;19317;48.226;11.686;2023-12-28T22:11:45;4.80;;;4.20;;
32964;SDS011;19317;48.226;11.686;2023-12-28T22:16:36;5.87;;;4.60;;
32964;SDS011;19317;48.226;11.686;2023-12-28T22:21:27;6.13;;;4.97;;
32964;SDS011;19317;48.226;11.686;2023-12-28T22:26:18;5.13;;;3.87;;
32964;SDS011;19317;48.226;11.686;2023-12-28T22:31:09;4.03;;;3.60;;
32964;SDS011;19317;48.226;11.686;2023-12-28T22:36:00;4.13;;;3.20;;
32964;SDS011;19317;48.226;11.686;2023-12-28T22:40:51;2.80;;;2.60;;
32964;SDS011;19317;48.226;11.686;2023-12-28T22:45:41;2.97;;;2.67;;
32964;SDS011;19317;48.226;11.686;2023-12-28T22:50:32;2.80;;;2.60;;
32964;SDS011;19317;48.226;11.686;2023-12-28T22:55:23;3.17;;;2.57;;
32964;SDS011;19317;48.226;11.686;2023-12-28T23:00:14;3.87;;;3.10;;
32964;SDS011;19317;48.226;11.686;2023-12-28T23:05:05;3.53;;;2.87;;
32964;SDS011;19317;48.226;11.686;2023-12-28T23:09:56;4.43;;;3.00;;
32964;SDS011;19317;48.226;11.686;2023-12-28T23:14:47;3.77;;;2.70;;
32964;SDS011;19317;48.226;11.686;2023-12-28T23:19:41;3.93;;;2.47;;
32964;SDS011;19317;48.226;11.686;2023-12-28T23:24:31;3.00;;;2.60;;
32964;SDS011;19317;48.226;11.686;2023-12-28T23:29:22;3.60;;;2.70;;
32964;SDS011;19317;48.226;11.686;2023-12-28T23:34:13;2.70;;;2.50;;
32964;SDS011;19317;48.226;11.686;2023-12-28T23:39:04;3.10;;;2.30;;
32964;SDS011;19317;48.226;11.686;2023-12-28T23:43:55;2.50;;;2.30;;
32964;SDS011;19317;48.226;11.686;2023-12-28T23:48:46;2.10;;;2.00;;
32964;SDS011;19317;48.226;11.686;2023-12-28T23:53:37;2.67;;;2.47;;
32964;SDS011;19317;48.226;11.686;2023-12-28T23:58:28;3.53;;;2.63;;
